createdAt,value
2023-05-19T00:00:05.755Z,101272.80
2023-05-19T00:03:05.140Z,101275.00
2023-05-19T00:05:41.286Z,101280.00
2023-05-19T00:08:16.002Z,101276.60
2023-05-19T00:10:50.200Z,101277.80
2023-05-19T00:13:24.637Z,101271.80
2023-05-19T00:15:58.971Z,101272.40
2023-05-19T00:18:31.837Z,101277.60
2023-05-19T00:23:15.021Z,101277.00
2023-05-19T00:25:48.316Z,101278.80
2023-05-19T00:28:21.523Z,101278.60
2023-05-19T00:30:55.753Z,101275.20
2023-05-19T00:33:29.801Z,101273.20
2023-05-19T00:36:04.330Z,101268.80
2023-05-19T00:38:40.604Z,101268.20
2023-05-19T00:41:14.389Z,101270.20
2023-05-19T00:43:48.696Z,101269.60
2023-05-19T00:46:23.364Z,101272.60
2023-05-19T00:48:56.757Z,101268.80
2023-05-19T00:51:33.090Z,101265.00
2023-05-19T00:54:06.518Z,101268.00
2023-05-19T00:56:39.679Z,101270.40
2023-05-19T00:59:12.955Z,101268.80
2023-05-19T01:01:49.331Z,101266.40
2023-05-19T01:04:25.698Z,101267.20
2023-05-19T01:06:59.422Z,101267.00
2023-05-19T01:09:32.608Z,101263.20
2023-05-19T01:12:08.354Z,101260.20
2023-05-19T01:14:41.455Z,101264.00
2023-05-19T01:17:25.591Z,101263.00
2023-05-19T01:20:11.291Z,101269.40
2023-05-19T01:23:24.088Z,101266.60
2023-05-19T01:26:19.571Z,101268.60
2023-05-19T01:29:17.836Z,101273.40
2023-05-19T01:31:51.920Z,101268.60
2023-05-19T01:34:28.015Z,101268.40
2023-05-19T01:37:02.157Z,101267.40
2023-05-19T01:39:36.794Z,101266.20
2023-05-19T01:42:11.066Z,101269.40
2023-05-19T01:44:44.642Z,101275.00
2023-05-19T01:47:17.915Z,101274.40
2023-05-19T01:49:50.907Z,101277.80
2023-05-19T01:52:23.930Z,101274.80
2023-05-19T01:54:56.965Z,101277.20
2023-05-19T01:57:43.914Z,101269.60
2023-05-19T02:00:25.546Z,101270.20
2023-05-19T02:03:17.988Z,101265.80
2023-05-19T02:06:17.048Z,101264.20
2023-05-19T02:08:58.855Z,101264.40
2023-05-19T02:11:39.340Z,101258.80
2023-05-19T02:14:19.344Z,101264.60
2023-05-19T02:16:53.829Z,101259.80
2023-05-19T02:19:30.544Z,101264.80
2023-05-19T02:22:03.721Z,101257.40
2023-05-19T02:24:37.773Z,101259.40
2023-05-19T02:27:11.003Z,101263.00
2023-05-19T02:29:44.041Z,101261.40
2023-05-19T02:32:19.285Z,101258.80
2023-05-19T02:34:53.440Z,101261.60
2023-05-19T02:37:29.459Z,101254.80
2023-05-19T02:40:02.761Z,101249.80
2023-05-19T02:42:35.867Z,101246.80
2023-05-19T02:45:10.950Z,101245.40
2023-05-19T02:47:46.963Z,101246.00
2023-05-19T02:50:20.483Z,101243.60
2023-05-19T02:52:54.208Z,101244.80
2023-05-19T02:55:27.153Z,101248.40
2023-05-19T02:58:00.265Z,101247.80
2023-05-19T03:00:33.546Z,101246.80
2023-05-19T03:03:06.841Z,101242.60
2023-05-19T03:05:39.913Z,101240.00
2023-05-19T03:08:12.970Z,101237.20
2023-05-19T03:10:46.914Z,101241.60
2023-05-19T03:13:19.822Z,101240.80
2023-05-19T03:15:52.840Z,101234.80
2023-05-19T03:18:25.939Z,101241.80
2023-05-19T03:20:58.961Z,101240.40
2023-05-19T03:23:31.855Z,101244.40
2023-05-19T03:26:04.941Z,101243.80
2023-05-19T03:28:38.272Z,101241.40
2023-05-19T03:31:11.434Z,101244.00
2023-05-19T03:33:44.817Z,101239.00
2023-05-19T03:36:18.160Z,101235.40
2023-05-19T03:38:51.178Z,101239.20
2023-05-19T03:41:24.351Z,101240.60
2023-05-19T03:43:57.574Z,101236.20
2023-05-19T03:46:30.893Z,101233.80
2023-05-19T03:49:22.261Z,101230.60
2023-05-19T03:52:11.173Z,101241.60
2023-05-19T03:54:59.554Z,101244.60
2023-05-19T03:57:33.817Z,101245.20
2023-05-19T04:00:08.162Z,101246.40
2023-05-19T04:02:45.279Z,101244.20
2023-05-19T04:05:19.481Z,101247.40
2023-05-19T04:07:52.483Z,101248.00
2023-05-19T04:10:25.556Z,101244.60
2023-05-19T04:13:00.837Z,101245.80
2023-05-19T04:15:33.884Z,101243.20
2023-05-19T04:18:07.119Z,101246.60
2023-05-19T04:20:40.254Z,101254.20
2023-05-19T04:23:13.258Z,101249.60
2023-05-19T04:25:48.862Z,101255.20
2023-05-19T04:28:21.981Z,101258.00
2023-05-19T04:30:55.077Z,101253.00
2023-05-19T04:33:29.435Z,101252.00
2023-05-19T04:36:05.825Z,101253.20
2023-05-19T04:38:40.112Z,101253.20
2023-05-19T04:41:13.929Z,101245.80
2023-05-19T04:43:48.749Z,101248.20
2023-05-19T04:46:26.279Z,101247.20
2023-05-19T04:49:01.492Z,101245.40
2023-05-19T04:51:35.933Z,101251.00
2023-05-19T04:54:10.259Z,101243.60
2023-05-19T04:56:43.844Z,101247.00
2023-05-19T04:59:17.422Z,101251.20
2023-05-19T05:01:50.706Z,101256.00
2023-05-19T05:04:24.780Z,101256.80
2023-05-19T05:06:57.942Z,101258.00
2023-05-19T05:09:31.520Z,101264.80
2023-05-19T05:12:08.213Z,101257.60
2023-05-19T05:14:43.219Z,101260.00
2023-05-19T05:17:18.395Z,101262.00
2023-05-19T05:19:53.104Z,101257.60
2023-05-19T05:22:28.234Z,101258.00
2023-05-19T05:25:03.375Z,101263.80
2023-05-19T05:27:36.806Z,101260.00
2023-05-19T05:30:12.595Z,101258.00
2023-05-19T05:32:46.407Z,101253.00
2023-05-19T05:35:32.459Z,101257.60
2023-05-19T05:38:05.693Z,101261.20
2023-05-19T05:40:38.786Z,101264.00
2023-05-19T05:43:11.993Z,101260.60
2023-05-19T05:45:50.699Z,101260.40
2023-05-19T05:48:25.326Z,101258.20
2023-05-19T05:51:00.674Z,101250.40
2023-05-19T05:53:41.880Z,101248.80
2023-05-19T05:56:18.127Z,101251.80
2023-05-19T05:58:55.408Z,101245.40
2023-05-19T06:01:30.624Z,101248.00
2023-05-19T06:04:04.904Z,101256.80
2023-05-19T06:06:39.085Z,101254.60
2023-05-19T06:09:12.628Z,101260.40
2023-05-19T06:11:45.796Z,101260.80
2023-05-19T06:14:19.004Z,101264.60
2023-05-19T06:17:14.931Z,101270.80
2023-05-19T06:19:48.061Z,101268.80
2023-05-19T06:22:21.526Z,101273.00
2023-05-19T06:24:54.985Z,101280.00
2023-05-19T06:27:28.233Z,101278.20
2023-05-19T06:30:01.490Z,101283.60
2023-05-19T06:32:36.222Z,101281.60
2023-05-19T06:35:10.782Z,101283.20
2023-05-19T06:37:43.857Z,101280.80
2023-05-19T06:40:18.177Z,101286.80
2023-05-19T06:42:51.519Z,101289.00
2023-05-19T06:45:59.757Z,101284.60
2023-05-19T06:48:33.038Z,101291.60
2023-05-19T06:51:06.776Z,101292.00
2023-05-19T06:53:40.359Z,101292.60
2023-05-19T06:56:15.186Z,101284.80
2023-05-19T06:58:48.294Z,101283.80
2023-05-19T07:01:21.436Z,101288.80
2023-05-19T07:03:57.548Z,101288.00
2023-05-19T07:06:31.476Z,101291.60
2023-05-19T07:09:05.860Z,101289.80
2023-05-19T07:11:39.424Z,101291.60
2023-05-19T07:14:12.781Z,101290.80
2023-05-19T07:16:47.125Z,101287.40
2023-05-19T07:19:20.331Z,101286.40
2023-05-19T07:21:53.420Z,101291.40
2023-05-19T07:24:27.809Z,101280.00
2023-05-19T07:27:00.974Z,101283.40
2023-05-19T07:29:34.045Z,101283.40
2023-05-19T07:32:07.860Z,101286.80
2023-05-19T07:34:41.946Z,101288.80
2023-05-19T07:37:15.076Z,101293.00
2023-05-19T07:39:48.513Z,101294.60
2023-05-19T07:42:21.556Z,101291.80
2023-05-19T07:44:54.504Z,101289.00
2023-05-19T07:47:27.581Z,101284.80
2023-05-19T07:50:00.712Z,101287.00
2023-05-19T07:52:33.708Z,101289.40
2023-05-19T07:55:07.451Z,101292.80
2023-05-19T07:57:40.528Z,101296.40
2023-05-19T08:00:16.260Z,101293.40
2023-05-19T08:02:50.485Z,101295.40
2023-05-19T08:05:23.674Z,101299.00
2023-05-19T08:07:57.761Z,101297.00
2023-05-19T08:10:31.749Z,101294.20
2023-05-19T08:13:05.444Z,101296.00
2023-05-19T08:15:39.133Z,101292.60
2023-05-19T08:18:12.308Z,101289.00
2023-05-19T08:20:46.536Z,101292.80
2023-05-19T08:23:20.028Z,101288.20
2023-05-19T08:25:53.966Z,101287.00
2023-05-19T08:28:27.319Z,101287.60
2023-05-19T08:31:00.717Z,101284.60
2023-05-19T08:33:33.900Z,101289.40
2023-05-19T08:36:07.928Z,101281.00
2023-05-19T08:38:41.204Z,101285.60
2023-05-19T08:41:14.153Z,101280.40
2023-05-19T08:43:47.313Z,101286.00
2023-05-19T08:46:23.129Z,101285.60
2023-05-19T08:49:00.750Z,101284.40
2023-05-19T08:51:42.273Z,101286.00
2023-05-19T08:54:18.589Z,101284.20
2023-05-19T08:56:51.865Z,101283.60
2023-05-19T08:59:25.913Z,101276.00
2023-05-19T09:01:59.492Z,101283.00
2023-05-19T09:04:33.587Z,101281.00
2023-05-19T09:07:07.297Z,101284.00
2023-05-19T09:09:43.937Z,101273.60
2023-05-19T09:12:17.366Z,101278.00
2023-05-19T09:14:50.581Z,101277.80
2023-05-19T09:17:23.760Z,101286.20
2023-05-19T09:19:57.064Z,101284.20
2023-05-19T09:22:30.753Z,101277.80
2023-05-19T09:25:03.729Z,101278.60
2023-05-19T09:27:37.391Z,101274.40
2023-05-19T09:30:15.412Z,101276.60
2023-05-19T09:32:49.961Z,101273.80
2023-05-19T09:35:23.325Z,101277.60
2023-05-19T09:37:58.796Z,101269.80
2023-05-19T09:40:33.375Z,101268.20
2023-05-19T09:43:11.260Z,101266.00
2023-05-19T09:45:44.483Z,101266.40
2023-05-19T09:48:18.707Z,101265.00
2023-05-19T09:50:53.097Z,101260.00
2023-05-19T09:53:27.499Z,101261.40
2023-05-19T09:56:03.701Z,101254.80
2023-05-19T09:58:38.073Z,101257.40
2023-05-19T10:01:12.068Z,101250.40
2023-05-19T10:03:46.106Z,101250.20
2023-05-19T10:06:19.511Z,101244.60
2023-05-19T10:08:53.139Z,101243.60
2023-05-19T10:11:27.591Z,101242.00
2023-05-19T10:14:01.531Z,101241.00
2023-05-19T10:16:34.845Z,101236.80
2023-05-19T10:19:09.283Z,101240.80
2023-05-19T10:21:42.452Z,101240.60
2023-05-19T10:24:15.473Z,101230.00
2023-05-19T10:26:52.579Z,101226.80
2023-05-19T10:29:29.559Z,101226.60
2023-05-19T10:32:08.068Z,101234.20
2023-05-19T10:35:27.066Z,101235.60
2023-05-19T10:38:13.239Z,101231.60
2023-05-19T10:40:59.366Z,101232.20
2023-05-19T10:43:46.420Z,101227.80
2023-05-19T10:46:19.553Z,101225.60
2023-05-19T10:48:52.921Z,101228.00
2023-05-19T10:51:31.949Z,101232.60
2023-05-19T10:54:10.962Z,101233.20
2023-05-19T10:56:47.753Z,101234.20
2023-05-19T10:59:39.668Z,101243.00
2023-05-19T11:02:33.160Z,101243.20
2023-05-19T11:05:14.775Z,101243.40
2023-05-19T11:08:02.599Z,101239.20
2023-05-19T11:10:36.076Z,101241.60
2023-05-19T11:13:09.370Z,101245.60
2023-05-19T11:15:46.794Z,101248.20
2023-05-19T11:18:20.409Z,101241.20
2023-05-19T11:21:03.899Z,101240.60
2023-05-19T11:23:42.357Z,101244.80
2023-05-19T11:26:15.890Z,101246.20
2023-05-19T11:28:50.701Z,101243.20
2023-05-19T11:31:24.356Z,101242.80
2023-05-19T11:33:58.444Z,101239.80
2023-05-19T11:36:31.755Z,101238.00
2023-05-19T11:39:07.347Z,101239.40
2023-05-19T11:41:44.792Z,101236.20
2023-05-19T11:44:17.867Z,101235.80
2023-05-19T11:46:51.107Z,101239.40
2023-05-19T11:49:24.287Z,101238.40
2023-05-19T11:51:57.461Z,101241.20
2023-05-19T11:54:36.848Z,101243.20
2023-05-19T11:57:11.912Z,101243.40
2023-05-19T11:59:45.943Z,101243.00
2023-05-19T12:02:25.437Z,101242.20
2023-05-19T12:04:58.972Z,101243.60
2023-05-19T12:07:32.217Z,101247.80
2023-05-19T12:10:07.266Z,101242.80
2023-05-19T12:12:41.746Z,101244.20
2023-05-19T12:15:16.760Z,101246.40
2023-05-19T12:17:52.420Z,101241.00
2023-05-19T12:20:26.421Z,101234.80
2023-05-19T12:23:00.528Z,101235.60
2023-05-19T12:25:34.276Z,101234.00
2023-05-19T12:28:08.460Z,101238.20
2023-05-19T12:30:42.240Z,101240.80
2023-05-19T12:33:16.319Z,101241.00
2023-05-19T12:35:50.188Z,101239.60
2023-05-19T12:38:24.239Z,101240.00
2023-05-19T12:41:01.569Z,101240.80
2023-05-19T12:43:35.058Z,101236.80
2023-05-19T12:46:17.569Z,101236.00
2023-05-19T12:48:51.882Z,101234.40
2023-05-19T12:51:25.000Z,101242.00
2023-05-19T12:53:58.121Z,101237.40
2023-05-19T12:56:31.921Z,101234.20
2023-05-19T12:59:06.431Z,101234.60
2023-05-19T13:01:40.950Z,101235.40
2023-05-19T13:04:14.332Z,101237.20
2023-05-19T13:06:49.752Z,101232.80
2023-05-19T13:09:22.764Z,101230.40
2023-05-19T13:11:56.180Z,101232.60
2023-05-19T13:14:29.545Z,101230.20
2023-05-19T13:17:03.495Z,101229.00
2023-05-19T13:19:36.700Z,101235.40
2023-05-19T13:22:09.828Z,101236.20
2023-05-19T13:24:42.919Z,101237.60
2023-05-19T13:27:16.014Z,101226.80
2023-05-19T13:29:49.128Z,101225.60
2023-05-19T13:32:22.243Z,101227.40
2023-05-19T13:34:55.362Z,101227.00
2023-05-19T13:37:28.803Z,101226.40
2023-05-19T13:40:02.182Z,101218.20
2023-05-19T13:42:36.668Z,101212.80
2023-05-19T13:45:12.417Z,101221.00
2023-05-19T13:47:45.399Z,101224.20
2023-05-19T13:50:18.394Z,101225.20
2023-05-19T13:52:51.512Z,101221.80
2023-05-19T13:55:26.486Z,101224.00
2023-05-19T13:57:59.584Z,101220.80
2023-05-19T14:00:33.581Z,101223.80
2023-05-19T14:03:07.139Z,101222.40
2023-05-19T14:05:40.115Z,101228.00
2023-05-19T14:08:13.200Z,101230.60
2023-05-19T14:10:47.244Z,101221.80
2023-05-19T14:13:32.578Z,101228.80
2023-05-19T14:16:06.419Z,101227.20
2023-05-19T14:18:39.656Z,101223.40
2023-05-19T14:21:12.802Z,101224.80
2023-05-19T14:23:46.580Z,101222.00
2023-05-19T14:26:19.914Z,101219.20
2023-05-19T14:28:52.944Z,101219.80
2023-05-19T14:31:26.144Z,101218.20
2023-05-19T14:33:59.597Z,101220.80
2023-05-19T14:36:33.387Z,101217.40
2023-05-19T14:39:06.547Z,101215.60
2023-05-19T14:41:39.509Z,101217.80
2023-05-19T14:44:12.519Z,101215.80
2023-05-19T14:46:45.682Z,101210.00
2023-05-19T14:49:18.916Z,101216.20
2023-05-19T14:51:52.150Z,101210.00
2023-05-19T14:54:25.481Z,101210.20
2023-05-19T14:56:58.572Z,101210.40
2023-05-19T14:59:31.729Z,101209.00
2023-05-19T15:02:05.465Z,101205.40
2023-05-19T15:04:38.599Z,101205.60
2023-05-19T15:07:11.964Z,101206.80
2023-05-19T15:09:45.346Z,101210.80
2023-05-19T15:12:18.478Z,101211.40
2023-05-19T15:14:51.735Z,101212.20
2023-05-19T15:17:25.009Z,101209.20
2023-05-19T15:19:58.234Z,101213.00
2023-05-19T15:22:34.356Z,101212.00
2023-05-19T15:25:08.531Z,101208.80
2023-05-19T15:27:41.631Z,101206.20
2023-05-19T15:30:15.630Z,101210.20
2023-05-19T15:32:48.686Z,101202.80
2023-05-19T15:35:21.864Z,101201.80
2023-05-19T15:37:55.014Z,101200.20
2023-05-19T15:40:28.392Z,101198.60
2023-05-19T15:43:01.662Z,101195.20
2023-05-19T15:45:34.888Z,101195.00
2023-05-19T15:48:08.772Z,101188.60
2023-05-19T15:50:42.077Z,101190.00
2023-05-19T15:53:15.246Z,101192.40
2023-05-19T15:55:48.246Z,101188.40
2023-05-19T15:58:21.336Z,101187.80
2023-05-19T16:00:54.395Z,101188.40
2023-05-19T16:03:27.905Z,101186.60
2023-05-19T16:06:01.258Z,101191.60
2023-05-19T16:08:34.514Z,101193.40
2023-05-19T16:11:07.939Z,101190.40
2023-05-19T16:13:41.132Z,101192.60
2023-05-19T16:16:14.836Z,101193.80
2023-05-19T16:18:48.037Z,101189.60
2023-05-19T16:21:21.597Z,101193.00
2023-05-19T16:23:54.730Z,101189.20
2023-05-19T16:26:29.295Z,101188.40
2023-05-19T16:29:02.412Z,101187.00
2023-05-19T16:31:36.375Z,101193.60
2023-05-19T16:34:09.442Z,101187.60
2023-05-19T16:36:42.508Z,101188.00
2023-05-19T16:39:15.591Z,101186.00
2023-05-19T16:41:48.515Z,101187.60
2023-05-19T16:44:22.026Z,101190.00
2023-05-19T16:46:55.161Z,101186.20
2023-05-19T16:49:28.653Z,101183.40
2023-05-19T16:52:01.781Z,101181.80
2023-05-19T16:54:35.324Z,101190.40
2023-05-19T16:57:10.002Z,101179.20
2023-05-19T16:59:43.103Z,101180.40
2023-05-19T17:02:16.197Z,101185.60
2023-05-19T17:04:49.363Z,101187.00
2023-05-19T17:07:22.462Z,101192.60
2023-05-19T17:09:56.119Z,101193.40
2023-05-19T17:12:29.292Z,101189.80
2023-05-19T17:15:02.359Z,101191.20
2023-05-19T17:17:35.501Z,101189.40
2023-05-19T17:20:11.311Z,101191.80
2023-05-19T17:22:44.449Z,101193.00
2023-05-19T17:25:17.845Z,101193.00
2023-05-19T17:27:52.553Z,101193.80
2023-05-19T17:30:25.701Z,101195.20
2023-05-19T17:32:59.587Z,101191.00
2023-05-19T17:35:32.919Z,101196.20
2023-05-19T17:38:06.035Z,101194.40
2023-05-19T17:40:41.948Z,101199.20
2023-05-19T17:43:15.170Z,101203.60
2023-05-19T17:45:48.458Z,101207.60
2023-05-19T17:48:21.513Z,101206.00
2023-05-19T17:50:54.595Z,101205.60
2023-05-19T17:53:29.140Z,101209.40
2023-05-19T17:56:06.117Z,101210.40
2023-05-19T17:58:41.551Z,101211.40
2023-05-19T18:01:15.953Z,101209.40
2023-05-19T18:03:50.358Z,101210.40
2023-05-19T18:06:25.332Z,101209.20
2023-05-19T18:09:02.112Z,101209.40
2023-05-19T18:11:35.418Z,101204.80
2023-05-19T18:14:08.597Z,101202.00
2023-05-19T18:16:41.978Z,101195.60
2023-05-19T18:19:15.312Z,101197.20
2023-05-19T18:21:48.381Z,101194.80
2023-05-19T18:24:21.494Z,101195.40
2023-05-19T18:26:54.841Z,101193.80
2023-05-19T18:29:27.941Z,101200.60
2023-05-19T18:32:01.400Z,101200.20
2023-05-19T18:34:34.715Z,101201.00
2023-05-19T18:37:08.138Z,101192.20
2023-05-19T18:39:41.835Z,101191.80
2023-05-19T18:42:15.177Z,101193.00
2023-05-19T18:44:48.743Z,101194.00
2023-05-19T18:47:23.036Z,101195.40
2023-05-19T18:49:56.278Z,101192.80
2023-05-19T18:52:31.023Z,101195.80
2023-05-19T18:55:04.032Z,101198.20
2023-05-19T18:57:37.035Z,101199.20
2023-05-19T19:00:13.775Z,101208.40
2023-05-19T19:02:46.952Z,101212.40
2023-05-19T19:05:20.249Z,101206.40
2023-05-19T19:07:53.550Z,101208.80
2023-05-19T19:10:27.295Z,101214.20
2023-05-19T19:13:00.387Z,101218.40
2023-05-19T19:15:33.472Z,101221.00
2023-05-19T19:18:08.121Z,101223.80
2023-05-19T19:20:41.458Z,101229.60
2023-05-19T19:23:14.678Z,101231.40
2023-05-19T19:25:48.159Z,101222.20
2023-05-19T19:28:21.269Z,101227.00
2023-05-19T19:30:54.756Z,101233.00
2023-05-19T19:33:27.926Z,101237.20
2023-05-19T19:36:01.059Z,101233.00
2023-05-19T19:38:34.116Z,101233.00
2023-05-19T19:41:07.278Z,101229.60
2023-05-19T19:43:40.602Z,101231.60
2023-05-19T19:46:13.832Z,101232.40
2023-05-19T19:48:47.119Z,101230.60
2023-05-19T19:51:20.284Z,101234.00
2023-05-19T19:53:53.496Z,101235.20
2023-05-19T19:56:27.772Z,101233.20
2023-05-19T19:59:01.643Z,101233.60
2023-05-19T20:01:34.981Z,101233.40
2023-05-19T20:04:08.427Z,101239.20
2023-05-19T20:06:41.773Z,101235.20
2023-05-19T20:09:14.818Z,101235.80
2023-05-19T20:11:48.090Z,101232.80
2023-05-19T20:14:21.176Z,101234.60
2023-05-19T20:16:54.387Z,101237.20
2023-05-19T20:19:33.804Z,101241.20
2023-05-19T20:22:07.021Z,101240.40
2023-05-19T20:24:40.268Z,101238.80
2023-05-19T20:27:13.410Z,101239.00
2023-05-19T20:29:47.212Z,101237.60
2023-05-19T20:32:20.152Z,101239.60
2023-05-19T20:34:53.279Z,101238.80
2023-05-19T20:37:26.549Z,101242.80
2023-05-19T20:39:59.605Z,101243.80
2023-05-19T20:42:32.806Z,101241.00
2023-05-19T20:45:06.543Z,101248.00
2023-05-19T20:47:39.735Z,101244.00
2023-05-19T20:50:13.597Z,101243.00
2023-05-19T20:52:46.719Z,101245.60
2023-05-19T20:55:20.128Z,101242.60
2023-05-19T20:57:53.272Z,101242.60
2023-05-19T21:00:28.325Z,101238.40
2023-05-19T21:03:03.381Z,101234.60
2023-05-19T21:05:36.965Z,101235.40
2023-05-19T21:08:13.028Z,101235.60
2023-05-19T21:10:46.028Z,101231.00
2023-05-19T21:13:19.096Z,101228.40
2023-05-19T21:15:52.209Z,101231.20
2023-05-19T21:18:25.791Z,101229.40
2023-05-19T21:21:02.638Z,101232.60
2023-05-19T21:23:35.777Z,101229.40
2023-05-19T21:26:08.862Z,101231.40
2023-05-19T21:28:42.240Z,101228.60
2023-05-19T21:31:15.352Z,101227.20
2023-05-19T21:33:48.600Z,101231.60
2023-05-19T21:36:23.085Z,101232.80
2023-05-19T21:38:56.362Z,101233.60
2023-05-19T21:41:31.237Z,101230.80
2023-05-19T21:44:04.349Z,101225.00
2023-05-19T21:46:37.390Z,101227.40
2023-05-19T21:49:10.652Z,101225.20
2023-05-19T21:51:43.891Z,101221.80
2023-05-19T21:54:17.038Z,101227.60
2023-05-19T21:56:50.044Z,101225.00
2023-05-19T21:59:24.972Z,101226.80
2023-05-19T22:01:58.666Z,101226.20
2023-05-19T22:04:32.494Z,101220.80
2023-05-19T22:07:06.584Z,101219.20
2023-05-19T22:09:39.715Z,101218.00
2023-05-19T22:12:13.267Z,101218.80
2023-05-19T22:14:46.455Z,101217.60
2023-05-19T22:17:19.502Z,101215.20
2023-05-19T22:19:52.551Z,101213.00
2023-05-19T22:22:25.734Z,101213.60
2023-05-19T22:24:58.887Z,101214.20
2023-05-19T22:27:32.002Z,101214.00
2023-05-19T22:30:05.524Z,101202.60
2023-05-19T22:32:38.984Z,101204.60
2023-05-19T22:35:13.301Z,101203.40
2023-05-19T22:37:46.462Z,101201.40
2023-05-19T22:40:19.809Z,101205.80
2023-05-19T22:42:52.836Z,101199.00
2023-05-19T22:45:26.171Z,101199.40
2023-05-19T22:47:59.430Z,101197.80
2023-05-19T22:50:32.506Z,101193.00
2023-05-19T22:53:05.647Z,101196.40
2023-05-19T22:55:38.723Z,101195.40
2023-05-19T22:58:11.779Z,101198.40
2023-05-19T23:00:44.922Z,101200.00
2023-05-19T23:03:18.451Z,101195.80
2023-05-19T23:05:51.522Z,101197.00
2023-05-19T23:08:24.502Z,101198.60
2023-05-19T23:11:02.825Z,101201.80
2023-05-19T23:13:36.207Z,101206.80
2023-05-19T23:16:09.788Z,101201.80
2023-05-19T23:18:43.186Z,101202.20
2023-05-19T23:21:16.226Z,101204.60
2023-05-19T23:23:49.345Z,101205.60
2023-05-19T23:26:22.493Z,101203.40
2023-05-19T23:28:55.728Z,101207.60
2023-05-19T23:31:28.931Z,101206.40
2023-05-19T23:34:02.240Z,101206.00
2023-05-19T23:36:35.287Z,101200.00
2023-05-19T23:39:08.393Z,101203.40
2023-05-19T23:41:41.341Z,101190.80
2023-05-19T23:44:14.312Z,101193.40
2023-05-19T23:46:47.288Z,101190.80
2023-05-19T23:49:20.846Z,101187.60
2023-05-19T23:51:53.907Z,101189.00
2023-05-19T23:54:27.037Z,101187.60
2023-05-19T23:57:00.329Z,101187.40
2023-05-19T23:59:33.417Z,101181.60
